sensor_id;sensor_type;location;lat;lon;timestamp;pressure;altitude;pressure_sealevel;temperature;humidity
60258;BME280;46115;44.484;11.314;2023-04-06T00:03:28;100667.09;;;3.11;55.20
60258;BME280;46115;44.484;11.314;2023-04-06T00:07:30;100663.38;;;3.27;54.42
60258;BME280;46115;44.484;11.314;2023-04-06T00:11:34;100664.38;;;3.19;54.79
60258;BME280;46115;44.484;11.314;2023-04-06T00:15:38;100664.59;;;3.03;54.75
60258;BME280;46115;44.484;11.314;2023-04-06T00:19:40;100667.09;;;3.09;55.15
60258;BME280;46115;44.484;11.314;2023-04-06T00:23:42;100657.03;;;2.87;56.10
60258;BME280;46115;44.484;11.314;2023-04-06T00:27:45;100664.16;;;2.74;56.54
60258;BME280;46115;44.484;11.314;2023-04-06T00:31:48;100660.97;;;2.52;57.13
60258;BME280;46115;44.484;11.314;2023-04-06T00:35:51;100663.88;;;2.28;57.51
60258;BME280;46115;44.484;11.314;2023-04-06T00:39:53;100666.50;;;2.26;57.08
60258;BME280;46115;44.484;11.314;2023-04-06T00:43:56;100673.56;;;2.19;57.95
60258;BME280;46115;44.484;11.314;2023-04-06T00:48:00;100659.84;;;1.99;58.18
60258;BME280;46115;44.484;11.314;2023-04-06T00:52:04;100671.66;;;2.32;57.64
60258;BME280;46115;44.484;11.314;2023-04-06T00:56:07;100670.03;;;2.22;58.07
60258;BME280;46115;44.484;11.314;2023-04-06T01:00:21;100667.63;;;2.04;58.11
60258;BME280;46115;44.484;11.314;2023-04-06T01:04:31;100665.03;;;2.02;57.83
60258;BME280;46115;44.484;11.314;2023-04-06T01:08:34;100660.63;;;2.10;58.67
60258;BME280;46115;44.484;11.314;2023-04-06T01:12:49;100657.13;;;2.11;58.91
60258;BME280;46115;44.484;11.314;2023-04-06T01:17:00;100654.72;;;1.93;58.41
60258;BME280;46115;44.484;11.314;2023-04-06T01:21:07;100653.66;;;2.12;58.05
60258;BME280;46115;44.484;11.314;2023-04-06T01:25:19;100646.28;;;1.67;59.68
60258;BME280;46115;44.484;11.314;2023-04-06T01:29:41;100643.50;;;1.86;58.83
60258;BME280;46115;44.484;11.314;2023-04-06T01:33:46;100636.84;;;1.56;59.56
60258;BME280;46115;44.484;11.314;2023-04-06T01:37:52;100634.13;;;1.66;59.54
60258;BME280;46115;44.484;11.314;2023-04-06T01:42:03;100631.56;;;1.64;61.28
60258;BME280;46115;44.484;11.314;2023-04-06T01:46:07;100634.28;;;1.53;60.26
60258;BME280;46115;44.484;11.314;2023-04-06T01:50:14;100621.38;;;1.41;59.97
60258;BME280;46115;44.484;11.314;2023-04-06T01:54:20;100624.53;;;1.69;59.88
60258;BME280;46115;44.484;11.314;2023-04-06T01:58:42;100628.00;;;1.71;59.76
60258;BME280;46115;44.484;11.314;2023-04-06T02:02:48;100583.06;;;1.49;59.63
60258;BME280;46115;44.484;11.314;2023-04-06T02:06:57;100628.25;;;1.47;60.28
60258;BME280;46115;44.484;11.314;2023-04-06T02:11:02;100626.63;;;1.34;60.07
60258;BME280;46115;44.484;11.314;2023-04-06T02:15:13;100619.63;;;1.42;60.38
60258;BME280;46115;44.484;11.314;2023-04-06T02:19:17;100622.97;;;1.54;60.08
60258;BME280;46115;44.484;11.314;2023-04-06T02:23:19;100616.16;;;1.38;59.22
60258;BME280;46115;44.484;11.314;2023-04-06T02:27:22;100616.78;;;1.63;59.91
60258;BME280;46115;44.484;11.314;2023-04-06T02:31:25;100602.31;;;1.35;59.47
60258;BME280;46115;44.484;11.314;2023-04-06T02:35:29;100609.13;;;1.49;58.84
60258;BME280;46115;44.484;11.314;2023-04-06T02:39:32;100604.47;;;1.80;58.00
60258;BME280;46115;44.484;11.314;2023-04-06T02:43:37;100600.25;;;1.66;58.37
60258;BME280;46115;44.484;11.314;2023-04-06T02:47:47;100593.44;;;1.55;59.12
60258;BME280;46115;44.484;11.314;2023-04-06T02:51:51;100590.81;;;1.57;58.47
60258;BME280;46115;44.484;11.314;2023-04-06T02:55:59;100589.06;;;1.58;58.17
60258;BME280;46115;44.484;11.314;2023-04-06T03:00:11;100595.97;;;1.60;58.45
60258;BME280;46115;44.484;11.314;2023-04-06T03:04:17;100601.91;;;1.77;57.86
60258;BME280;46115;44.484;11.314;2023-04-06T03:08:21;100597.69;;;1.63;57.74
60258;BME280;46115;44.484;11.314;2023-04-06T03:12:25;100603.88;;;1.52;57.52
60258;BME280;46115;44.484;11.314;2023-04-06T03:17:00;100602.31;;;1.33;59.41
60258;BME280;46115;44.484;11.314;2023-04-06T03:21:05;100601.41;;;1.42;59.07
60258;BME280;46115;44.484;11.314;2023-04-06T03:25:18;100610.25;;;1.21;59.64
60258;BME280;46115;44.484;11.314;2023-04-06T03:29:21;100615.47;;;1.21;60.02
60258;BME280;46115;44.484;11.314;2023-04-06T03:33:23;100614.69;;;1.11;59.73
60258;BME280;46115;44.484;11.314;2023-04-06T03:37:30;100624.94;;;1.30;58.30
60258;BME280;46115;44.484;11.314;2023-04-06T03:41:37;100632.41;;;1.65;56.44
60258;BME280;46115;44.484;11.314;2023-04-06T03:45:48;100632.31;;;1.77;56.22
60258;BME280;46115;44.484;11.314;2023-04-06T03:49:51;100638.81;;;2.17;54.31
60258;BME280;46115;44.484;11.314;2023-04-06T03:53:55;100647.59;;;2.09;55.41
60258;BME280;46115;44.484;11.314;2023-04-06T03:57:57;100640.25;;;1.62;56.05
60258;BME280;46115;44.484;11.314;2023-04-06T04:01:59;100645.72;;;1.34;58.76
60258;BME280;46115;44.484;11.314;2023-04-06T04:06:02;100651.91;;;1.22;58.37
60258;BME280;46115;44.484;11.314;2023-04-06T04:10:06;100655.19;;;1.47;57.85
60258;BME280;46115;44.484;11.314;2023-04-06T04:14:09;100657.03;;;1.30;57.40
60258;BME280;46115;44.484;11.314;2023-04-06T04:18:11;100663.94;;;1.34;58.17
60258;BME280;46115;44.484;11.314;2023-04-06T04:22:14;100663.91;;;1.37;57.46
60258;BME280;46115;44.484;11.314;2023-04-06T04:26:19;100667.22;;;1.58;58.15
60258;BME280;46115;44.484;11.314;2023-04-06T04:30:22;100663.03;;;1.44;56.94
60258;BME280;46115;44.484;11.314;2023-04-06T04:34:24;100666.53;;;1.36;57.33
60258;BME280;46115;44.484;11.314;2023-04-06T04:38:27;100663.13;;;1.31;57.67
60258;BME280;46115;44.484;11.314;2023-04-06T04:42:33;100644.25;;;1.00;58.23
60258;BME280;46115;44.484;11.314;2023-04-06T04:46:38;100674.63;;;0.99;59.01
60258;BME280;46115;44.484;11.314;2023-04-06T04:50:42;100670.34;;;0.90;58.47
60258;BME280;46115;44.484;11.314;2023-04-06T04:54:45;100668.66;;;0.85;59.18
60258;BME280;46115;44.484;11.314;2023-04-06T04:58:57;100673.91;;;0.77;58.85
60258;BME280;46115;44.484;11.314;2023-04-06T05:03:03;100664.38;;;0.78;59.55
60258;BME280;46115;44.484;11.314;2023-04-06T05:07:10;100663.38;;;0.97;59.31
60258;BME280;46115;44.484;11.314;2023-04-06T05:11:15;100661.66;;;0.94;58.40
60258;BME280;46115;44.484;11.314;2023-04-06T05:15:23;100661.53;;;1.13;58.54
60258;BME280;46115;44.484;11.314;2023-04-06T05:19:30;100664.13;;;1.14;58.08
60258;BME280;46115;44.484;11.314;2023-04-06T05:23:33;100657.03;;;1.32;57.53
60258;BME280;46115;44.484;11.314;2023-04-06T05:27:37;100671.50;;;1.65;56.37
60258;BME280;46115;44.484;11.314;2023-04-06T05:31:47;100666.03;;;1.92;55.55
60258;BME280;46115;44.484;11.314;2023-04-06T05:35:50;100668.63;;;1.92;56.17
60258;BME280;46115;44.484;11.314;2023-04-06T05:39:53;100669.44;;;1.97;56.21
60258;BME280;46115;44.484;11.314;2023-04-06T05:43:56;100668.63;;;1.94;55.26
60258;BME280;46115;44.484;11.314;2023-04-06T05:48:01;100659.84;;;2.01;55.83
60258;BME280;46115;44.484;11.314;2023-04-06T05:52:05;100671.06;;;2.07;55.57
60258;BME280;46115;44.484;11.314;2023-04-06T05:56:08;100668.47;;;2.09;55.50
60258;BME280;46115;44.484;11.314;2023-04-06T06:00:11;100668.69;;;2.60;54.50
60258;BME280;46115;44.484;11.314;2023-04-06T06:04:15;100668.56;;;2.69;55.35
60258;BME280;46115;44.484;11.314;2023-04-06T06:08:19;100674.84;;;3.17;53.17
60258;BME280;46115;44.484;11.314;2023-04-06T06:12:23;100676.84;;;3.55;50.29
60258;BME280;46115;44.484;11.314;2023-04-06T06:16:26;100677.38;;;4.22;49.70
60258;BME280;46115;44.484;11.314;2023-04-06T06:20:30;100677.06;;;4.37;48.49
60258;BME280;46115;44.484;11.314;2023-04-06T06:24:36;100677.56;;;4.56;47.85
60258;BME280;46115;44.484;11.314;2023-04-06T06:28:39;100689.44;;;4.70;49.17
60258;BME280;46115;44.484;11.314;2023-04-06T06:32:44;100685.53;;;5.64;47.33
60258;BME280;46115;44.484;11.314;2023-04-06T06:36:48;100688.28;;;5.93;45.33
60258;BME280;46115;44.484;11.314;2023-04-06T06:40:52;100688.13;;;6.00;45.11
60258;BME280;46115;44.484;11.314;2023-04-06T06:44:57;100695.94;;;5.67;44.92
60258;BME280;46115;44.484;11.314;2023-04-06T06:49:00;100688.44;;;6.20;44.91
60258;BME280;46115;44.484;11.314;2023-04-06T06:53:05;100702.38;;;7.40;42.58
60258;BME280;46115;44.484;11.314;2023-04-06T06:57:09;100695.94;;;6.93;42.70
60258;BME280;46115;44.484;11.314;2023-04-06T07:01:12;100707.94;;;7.31;41.36
60258;BME280;46115;44.484;11.314;2023-04-06T07:05:15;100705.69;;;7.98;39.53
60258;BME280;46115;44.484;11.314;2023-04-06T07:09:19;100719.28;;;7.59;39.02
60258;BME280;46115;44.484;11.314;2023-04-06T07:13:22;100716.38;;;8.44;37.60
60258;BME280;46115;44.484;11.314;2023-04-06T07:17:30;100711.69;;;9.21;36.72
60258;BME280;46115;44.484;11.314;2023-04-06T07:21:33;100701.69;;;9.07;36.42
60258;BME280;46115;44.484;11.314;2023-04-06T07:25:37;100712.34;;;10.32;34.35
60258;BME280;46115;44.484;11.314;2023-04-06T07:29:39;100697.72;;;10.04;34.54
60258;BME280;46115;44.484;11.314;2023-04-06T07:33:42;100717.50;;;10.93;32.26
60258;BME280;46115;44.484;11.314;2023-04-06T07:37:44;100716.56;;;11.32;32.79
60258;BME280;46115;44.484;11.314;2023-04-06T07:41:49;100720.19;;;12.19;32.46
60258;BME280;46115;44.484;11.314;2023-04-06T07:45:51;100719.53;;;11.43;34.41
60258;BME280;46115;44.484;11.314;2023-04-06T07:49:55;100717.09;;;12.44;34.00
60258;BME280;46115;44.484;11.314;2023-04-06T07:53:58;100705.13;;;12.37;34.07
60258;BME280;46115;44.484;11.314;2023-04-06T07:58:02;100717.03;;;12.45;33.55
60258;BME280;46115;44.484;11.314;2023-04-06T08:02:05;100713.81;;;13.05;33.27
60258;BME280;46115;44.484;11.314;2023-04-06T08:06:07;100720.88;;;13.53;30.77
60258;BME280;46115;44.484;11.314;2023-04-06T08:10:10;100719.09;;;14.58;30.42
60258;BME280;46115;44.484;11.314;2023-04-06T08:14:14;100723.09;;;14.65;28.74
60258;BME280;46115;44.484;11.314;2023-04-06T08:18:17;100712.31;;;14.08;28.96
60258;BME280;46115;44.484;11.314;2023-04-06T08:22:19;100714.22;;;13.76;28.26
60258;BME280;46115;44.484;11.314;2023-04-06T08:26:22;100716.91;;;14.64;28.49
60258;BME280;46115;44.484;11.314;2023-04-06T08:30:26;100717.44;;;14.84;27.71
60258;BME280;46115;44.484;11.314;2023-04-06T08:34:28;100717.31;;;15.69;28.39
60258;BME280;46115;44.484;11.314;2023-04-06T08:38:31;100721.22;;;15.49;27.91
60258;BME280;46115;44.484;11.314;2023-04-06T08:42:39;100717.81;;;15.62;27.27
60258;BME280;46115;44.484;11.314;2023-04-06T08:46:43;100722.34;;;15.33;26.36
60258;BME280;46115;44.484;11.314;2023-04-06T08:50:46;100674.31;;;15.20;25.86
60258;BME280;46115;44.484;11.314;2023-04-06T08:54:49;100703.13;;;16.34;24.52
60258;BME280;46115;44.484;11.314;2023-04-06T08:58:54;100713.28;;;16.41;23.92
60258;BME280;46115;44.484;11.314;2023-04-06T09:02:58;100703.47;;;14.52;24.19
60258;BME280;46115;44.484;11.314;2023-04-06T09:07:01;100716.16;;;15.86;23.22
60258;BME280;46115;44.484;11.314;2023-04-06T09:11:04;100680.28;;;16.04;24.15
60258;BME280;46115;44.484;11.314;2023-04-06T09:15:17;100704.91;;;17.09;23.19
60258;BME280;46115;44.484;11.314;2023-04-06T09:19:21;100703.25;;;16.83;23.96
60258;BME280;46115;44.484;11.314;2023-04-06T09:23:24;100701.59;;;17.90;22.78
60258;BME280;46115;44.484;11.314;2023-04-06T09:27:30;100684.41;;;17.82;22.14
60258;BME280;46115;44.484;11.314;2023-04-06T09:31:33;100706.44;;;18.31;22.40
60258;BME280;46115;44.484;11.314;2023-04-06T09:35:37;100690.91;;;18.01;22.70
60258;BME280;46115;44.484;11.314;2023-04-06T09:39:39;100689.63;;;17.59;23.99
60258;BME280;46115;44.484;11.314;2023-04-06T09:43:42;100692.91;;;17.15;24.64
60258;BME280;46115;44.484;11.314;2023-04-06T09:47:45;100685.88;;;17.14;23.11
60258;BME280;46115;44.484;11.314;2023-04-06T09:51:55;100680.50;;;16.39;23.85
60258;BME280;46115;44.484;11.314;2023-04-06T09:56:02;100676.13;;;16.51;24.56
60258;BME280;46115;44.484;11.314;2023-04-06T10:00:07;100646.31;;;16.57;24.21
60258;BME280;46115;44.484;11.314;2023-04-06T10:04:21;100670.31;;;15.54;25.66
60258;BME280;46115;44.484;11.314;2023-04-06T10:08:28;100659.38;;;16.23;24.56
60258;BME280;46115;44.484;11.314;2023-04-06T10:12:31;100654.84;;;15.73;24.94
60258;BME280;46115;44.484;11.314;2023-04-06T10:16:33;100644.19;;;15.86;25.43
60258;BME280;46115;44.484;11.314;2023-04-06T10:20:41;100642.31;;;16.01;25.92
60258;BME280;46115;44.484;11.314;2023-04-06T10:24:46;100650.94;;;16.04;25.53
60258;BME280;46115;44.484;11.314;2023-04-06T10:28:49;100614.53;;;15.78;26.55
60258;BME280;46115;44.484;11.314;2023-04-06T10:32:52;100647.63;;;16.01;26.08
60258;BME280;46115;44.484;11.314;2023-04-06T10:36:54;100638.69;;;16.14;26.62
60258;BME280;46115;44.484;11.314;2023-04-06T10:41:03;100594.91;;;15.66;24.88
60258;BME280;46115;44.484;11.314;2023-04-06T10:45:07;100606.88;;;14.65;25.67
60258;BME280;46115;44.484;11.314;2023-04-06T10:49:20;100623.38;;;15.12;25.91
60258;BME280;46115;44.484;11.314;2023-04-06T10:53:24;100614.13;;;15.57;26.85
60258;BME280;46115;44.484;11.314;2023-04-06T10:57:29;100614.97;;;15.72;27.44
60258;BME280;46115;44.484;11.314;2023-04-06T11:01:34;100601.59;;;15.59;27.00
60258;BME280;46115;44.484;11.314;2023-04-06T11:05:37;100608.66;;;14.51;25.83
60258;BME280;46115;44.484;11.314;2023-04-06T11:09:42;100608.66;;;14.65;25.76
60258;BME280;46115;44.484;11.314;2023-04-06T11:13:48;100601.25;;;13.99;26.42
60258;BME280;46115;44.484;11.314;2023-04-06T11:17:51;100601.81;;;13.90;27.58
60258;BME280;46115;44.484;11.314;2023-04-06T11:21:54;100595.09;;;14.27;26.48
60258;BME280;46115;44.484;11.314;2023-04-06T11:25:56;100595.06;;;14.55;26.79
60258;BME280;46115;44.484;11.314;2023-04-06T11:30:01;100581.19;;;14.22;26.83
60258;BME280;46115;44.484;11.314;2023-04-06T11:34:09;100576.34;;;14.57;26.96
60258;BME280;46115;44.484;11.314;2023-04-06T11:38:12;100573.72;;;14.14;27.53
60258;BME280;46115;44.484;11.314;2023-04-06T11:42:21;100563.25;;;14.68;26.95
60258;BME280;46115;44.484;11.314;2023-04-06T11:46:26;100511.53;;;14.02;27.61
60258;BME280;46115;44.484;11.314;2023-04-06T11:50:32;100556.06;;;14.13;27.36
60258;BME280;46115;44.484;11.314;2023-04-06T11:54:36;100552.63;;;14.11;26.93
60258;BME280;46115;44.484;11.314;2023-04-06T11:58:39;100553.88;;;14.48;27.92
60258;BME280;46115;44.484;11.314;2023-04-06T12:02:45;100553.66;;;14.37;27.20
60258;BME280;46115;44.484;11.314;2023-04-06T12:06:48;100549.97;;;14.40;27.55
60258;BME280;46115;44.484;11.314;2023-04-06T12:10:50;100540.44;;;14.64;27.32
60258;BME280;46115;44.484;11.314;2023-04-06T12:14:53;100546.63;;;14.50;26.65
60258;BME280;46115;44.484;11.314;2023-04-06T12:18:57;100515.78;;;14.33;27.32
60258;BME280;46115;44.484;11.314;2023-04-06T12:22:59;100529.28;;;14.02;27.99
60258;BME280;46115;44.484;11.314;2023-04-06T12:27:02;100502.03;;;14.13;28.00
60258;BME280;46115;44.484;11.314;2023-04-06T12:31:14;100514.69;;;13.95;27.38
60258;BME280;46115;44.484;11.314;2023-04-06T12:35:18;100506.75;;;13.51;27.98
60258;BME280;46115;44.484;11.314;2023-04-06T12:39:22;100507.19;;;14.01;27.56
60258;BME280;46115;44.484;11.314;2023-04-06T12:43:24;100507.81;;;14.33;27.32
60258;BME280;46115;44.484;11.314;2023-04-06T12:47:27;100505.38;;;13.88;26.55
60258;BME280;46115;44.484;11.314;2023-04-06T12:51:31;100482.59;;;13.69;26.94
60258;BME280;46115;44.484;11.314;2023-04-06T12:55:34;100493.19;;;14.12;27.54
60258;BME280;46115;44.484;11.314;2023-04-06T12:59:38;100496.38;;;13.90;26.26
60258;BME280;46115;44.484;11.314;2023-04-06T13:03:41;100493.22;;;13.84;27.48
60258;BME280;46115;44.484;11.314;2023-04-06T13:07:46;100489.53;;;14.56;28.26
60258;BME280;46115;44.484;11.314;2023-04-06T13:11:48;100490.44;;;14.69;27.39
60258;BME280;46115;44.484;11.314;2023-04-06T13:15:51;100483.75;;;14.49;26.61
60258;BME280;46115;44.484;11.314;2023-04-06T13:19:54;100470.94;;;13.72;27.13
60258;BME280;46115;44.484;11.314;2023-04-06T13:23:58;100467.56;;;14.11;26.99
60258;BME280;46115;44.484;11.314;2023-04-06T13:28:01;100464.09;;;14.38;28.61
60258;BME280;46115;44.484;11.314;2023-04-06T13:32:03;100447.22;;;14.65;27.44
60258;BME280;46115;44.484;11.314;2023-04-06T13:36:06;100437.81;;;14.87;26.97
60258;BME280;46115;44.484;11.314;2023-04-06T13:40:11;100444.44;;;14.94;28.22
60258;BME280;46115;44.484;11.314;2023-04-06T13:44:14;100433.59;;;14.57;28.64
60258;BME280;46115;44.484;11.314;2023-04-06T13:48:16;100427.97;;;14.62;27.44
60258;BME280;46115;44.484;11.314;2023-04-06T13:52:19;100424.81;;;14.82;27.93
60258;BME280;46115;44.484;11.314;2023-04-06T13:56:23;100418.38;;;15.12;27.83
60258;BME280;46115;44.484;11.314;2023-04-06T14:00:25;100415.91;;;15.09;26.66
60258;BME280;46115;44.484;11.314;2023-04-06T14:04:28;100408.13;;;14.93;26.29
60258;BME280;46115;44.484;11.314;2023-04-06T14:08:31;100399.78;;;14.85;27.96
60258;BME280;46115;44.484;11.314;2023-04-06T14:12:35;100411.22;;;15.12;26.81
60258;BME280;46115;44.484;11.314;2023-04-06T14:16:38;100410.19;;;15.27;25.51
60258;BME280;46115;44.484;11.314;2023-04-06T14:20:41;100397.25;;;14.83;25.85
60258;BME280;46115;44.484;11.314;2023-04-06T14:24:45;100400.91;;;14.95;25.52
60258;BME280;46115;44.484;11.314;2023-04-06T14:28:49;100399.44;;;14.37;26.16
60258;BME280;46115;44.484;11.314;2023-04-06T14:32:53;100402.34;;;14.74;25.65
60258;BME280;46115;44.484;11.314;2023-04-06T14:36:55;100399.59;;;14.88;26.84
60258;BME280;46115;44.484;11.314;2023-04-06T14:40:58;100385.31;;;14.89;26.77
60258;BME280;46115;44.484;11.314;2023-04-06T14:45:02;100352.97;;;14.82;27.39
60258;BME280;46115;44.484;11.314;2023-04-06T14:49:05;100393.03;;;15.19;27.36
60258;BME280;46115;44.484;11.314;2023-04-06T14:53:07;100392.38;;;15.03;27.22
60258;BME280;46115;44.484;11.314;2023-04-06T14:57:10;100392.91;;;15.08;27.54
60258;BME280;46115;44.484;11.314;2023-04-06T15:01:14;100390.50;;;14.38;27.32
60258;BME280;46115;44.484;11.314;2023-04-06T15:05:16;100399.91;;;14.83;27.19
60258;BME280;46115;44.484;11.314;2023-04-06T15:09:19;100400.00;;;14.69;28.27
60258;BME280;46115;44.484;11.314;2023-04-06T15:13:21;100390.03;;;14.98;27.34
60258;BME280;46115;44.484;11.314;2023-04-06T15:17:25;100397.75;;;14.76;26.35
60258;BME280;46115;44.484;11.314;2023-04-06T15:21:28;100394.63;;;14.56;27.35
60258;BME280;46115;44.484;11.314;2023-04-06T15:25:32;100390.94;;;14.72;28.25
60258;BME280;46115;44.484;11.314;2023-04-06T15:29:34;100382.16;;;14.96;26.46
60258;BME280;46115;44.484;11.314;2023-04-06T15:33:38;100387.97;;;14.89;25.60
60258;BME280;46115;44.484;11.314;2023-04-06T15:37:41;100383.00;;;14.97;25.92
60258;BME280;46115;44.484;11.314;2023-04-06T15:41:43;100381.16;;;14.85;28.13
60258;BME280;46115;44.484;11.314;2023-04-06T15:45:46;100380.34;;;14.97;27.46
60258;BME280;46115;44.484;11.314;2023-04-06T15:49:50;100372.69;;;15.05;26.83
60258;BME280;46115;44.484;11.314;2023-04-06T15:53:52;100372.56;;;15.19;26.91
60258;BME280;46115;44.484;11.314;2023-04-06T15:57:55;100363.59;;;14.70;28.57
60258;BME280;46115;44.484;11.314;2023-04-06T16:01:57;100374.25;;;14.82;28.64
60258;BME280;46115;44.484;11.314;2023-04-06T16:06:02;100372.03;;;14.49;29.21
60258;BME280;46115;44.484;11.314;2023-04-06T16:10:06;100367.13;;;14.43;29.41
60258;BME280;46115;44.484;11.314;2023-04-06T16:14:09;100356.44;;;14.57;28.73
60258;BME280;46115;44.484;11.314;2023-04-06T16:18:11;100368.56;;;14.34;28.96
60258;BME280;46115;44.484;11.314;2023-04-06T16:22:15;100364.97;;;14.62;28.10
60258;BME280;46115;44.484;11.314;2023-04-06T16:26:18;100362.19;;;14.10;29.35
60258;BME280;46115;44.484;11.314;2023-04-06T16:30:21;100359.09;;;14.30;28.81
60258;BME280;46115;44.484;11.314;2023-04-06T16:34:30;100367.78;;;13.79;28.46
60258;BME280;46115;44.484;11.314;2023-04-06T16:38:34;100360.25;;;14.26;29.24
60258;BME280;46115;44.484;11.314;2023-04-06T16:42:37;100352.78;;;13.78;30.64
60258;BME280;46115;44.484;11.314;2023-04-06T16:46:39;100364.56;;;13.88;31.45
60258;BME280;46115;44.484;11.314;2023-04-06T16:50:44;100367.66;;;13.53;31.33
60258;BME280;46115;44.484;11.314;2023-04-06T16:54:48;100369.91;;;13.59;31.69
60258;BME280;46115;44.484;11.314;2023-04-06T16:58:51;100359.28;;;13.45;33.07
60258;BME280;46115;44.484;11.314;2023-04-06T17:02:53;100361.59;;;13.92;32.92
60258;BME280;46115;44.484;11.314;2023-04-06T17:06:55;100362.03;;;13.43;33.09
60258;BME280;46115;44.484;11.314;2023-04-06T17:10:59;100354.97;;;13.14;34.28
60258;BME280;46115;44.484;11.314;2023-04-06T17:15:02;100350.28;;;13.33;34.72
60258;BME280;46115;44.484;11.314;2023-04-06T17:19:04;100348.22;;;13.24;34.32
60258;BME280;46115;44.484;11.314;2023-04-06T17:23:07;100345.50;;;13.10;35.28
60258;BME280;46115;44.484;11.314;2023-04-06T17:27:11;100337.34;;;12.99;35.73
60258;BME280;46115;44.484;11.314;2023-04-06T17:31:13;100335.94;;;12.93;35.83
60258;BME280;46115;44.484;11.314;2023-04-06T17:35:16;100347.50;;;12.92;35.77
60258;BME280;46115;44.484;11.314;2023-04-06T17:39:18;100344.50;;;12.68;35.86
60258;BME280;46115;44.484;11.314;2023-04-06T17:43:22;100346.19;;;12.55;36.64
60258;BME280;46115;44.484;11.314;2023-04-06T17:47:25;100346.59;;;12.63;36.54
60258;BME280;46115;44.484;11.314;2023-04-06T17:51:32;100344.50;;;12.38;37.08
60258;BME280;46115;44.484;11.314;2023-04-06T17:55:34;100336.91;;;12.32;37.95
60258;BME280;46115;44.484;11.314;2023-04-06T17:59:38;100340.28;;;11.73;38.50
60258;BME280;46115;44.484;11.314;2023-04-06T18:03:40;100325.00;;;11.78;37.58
60258;BME280;46115;44.484;11.314;2023-04-06T18:07:43;100350.91;;;11.89;37.91
60258;BME280;46115;44.484;11.314;2023-04-06T18:11:45;100360.28;;;11.78;38.70
60258;BME280;46115;44.484;11.314;2023-04-06T18:15:49;100362.38;;;11.40;39.36
60258;BME280;46115;44.484;11.314;2023-04-06T18:19:51;100374.13;;;11.35;38.38
60258;BME280;46115;44.484;11.314;2023-04-06T18:23:54;100375.50;;;10.76;40.22
60258;BME280;46115;44.484;11.314;2023-04-06T22:06:09;100446.63;;;7.33;48.39
60258;BME280;46115;44.484;11.314;2023-04-06T22:10:11;100455.22;;;7.38;47.93
60258;BME280;46115;44.484;11.314;2023-04-06T22:14:13;100450.59;;;7.45;48.21
60258;BME280;46115;44.484;11.314;2023-04-06T22:18:17;100429.00;;;7.12;47.87
60258;BME280;46115;44.484;11.314;2023-04-06T22:22:20;100443.69;;;7.17;47.50
60258;BME280;46115;44.484;11.314;2023-04-06T22:26:23;100438.09;;;7.27;48.32
60258;BME280;46115;44.484;11.314;2023-04-06T22:30:26;100440.88;;;7.22;49.01
60258;BME280;46115;44.484;11.314;2023-04-06T22:34:28;100442.34;;;7.06;48.92
60258;BME280;46115;44.484;11.314;2023-04-06T22:38:33;100436.50;;;6.98;48.40
60258;BME280;46115;44.484;11.314;2023-04-06T22:42:35;100436.69;;;6.92;49.25
60258;BME280;46115;44.484;11.314;2023-04-06T22:46:37;100435.59;;;6.99;48.70
60258;BME280;46115;44.484;11.314;2023-04-06T22:50:40;100428.16;;;6.85;48.97
60258;BME280;46115;44.484;11.314;2023-04-06T22:54:43;100434.56;;;7.03;50.08
60258;BME280;46115;44.484;11.314;2023-04-06T22:58:46;100429.03;;;6.85;47.60
60258;BME280;46115;44.484;11.314;2023-04-06T23:02:49;100427.59;;;6.77;48.88
60258;BME280;46115;44.484;11.314;2023-04-06T23:06:51;100426.50;;;6.82;48.75
60258;BME280;46115;44.484;11.314;2023-04-06T23:10:55;100422.06;;;6.84;48.30
60258;BME280;46115;44.484;11.314;2023-04-06T23:14:57;100423.28;;;7.24;48.36
60258;BME280;46115;44.484;11.314;2023-04-06T23:18:59;100429.97;;;7.09;47.58
60258;BME280;46115;44.484;11.314;2023-04-06T23:23:02;100423.69;;;7.13;46.98
60258;BME280;46115;44.484;11.314;2023-04-06T23:27:05;100414.69;;;6.96;48.00
60258;BME280;46115;44.484;11.314;2023-04-06T23:31:07;100413.25;;;6.61;49.45
60258;BME280;46115;44.484;11.314;2023-04-06T23:35:10;100414.88;;;6.38;51.66
60258;BME280;46115;44.484;11.314;2023-04-06T23:39:12;100408.97;;;6.04;50.96
60258;BME280;46115;44.484;11.314;2023-04-06T23:43:16;100420.19;;;6.09;51.70
60258;BME280;46115;44.484;11.314;2023-04-06T23:47:18;100417.22;;;6.19;50.11
60258;BME280;46115;44.484;11.314;2023-04-06T23:51:21;100422.19;;;6.29;50.91
60258;BME280;46115;44.484;11.314;2023-04-06T23:55:23;100415.84;;;6.08;50.67
60258;BME280;46115;44.484;11.314;2023-04-06T23:59:27;100421.38;;;5.99;51.64
